Lone Rock, WI (53556)

01:21 PM CDT die 21o October, anno 2014 (GMT -0500)
Sweet Rock Field | Change Station
CLOSE
Current Station
Personal Weather Stations
Location: Avoca, WI
Elevation: 1158 ft
Nearby Weather Stations

Elev 1158 ft 43.14 °N, 90.29 °W | Updated 32 seconds ago

Partly Cloudy
Partialiter Nubila
54.0 °F
Feels Like 54.0 °F
N
1.6
Ventus Variabilis Ventus from Eurus
Gusts 2.2 mph

Hodie
High -- | Low -- °F
--% Chance of Precip.
Yesterday
High -- | Low -- °F
Precip. -- in
7:21 AM 6:08 PM
Waning Crescent, 5% visible
Pressio 30.23 in
Visibilitas 10.0 milia passuum
Clouds Few 3000 ft
Frigus in quo Ros apparet 38 °F
Umor 55%
Rainfall 0.27 in
Snow Depth Not available.
UV 4 out of 12
Pollen 1.50 out of 12
Air Quality Not available.
Flu Activity Sporadic
METAR KLNR 211756Z AUTO 13006KT 10SM FEW030 12/03 A3023 RMK AO2 SLP236 T01220028 10128 20022 50002 $

More Conditions Fewer Conditions

Pressio 30.23 in
Visibilitas 10.0 milia passuum
Clouds Few 3000 ft
Frigus in quo Ros apparet 38 °F
Umor 55%
Rainfall 0.27 in
Snow Depth Not available.
UV 4 out of 12
Pollen 1.50 out of 12
Air Quality Not available.
Flu Activity Sporadic
METAR KLNR 211756Z AUTO 13006KT 10SM FEW030 12/03 A3023 RMK AO2 SLP236 T01220028 10128 20022 50002 $

More Conditions Fewer Conditions

10-Day Weather Forecast

Almanac

Astronomy

Oct. 21, 2014 Rise Set
Actual Time 7:21 AM CDT 6:08 PM CDT
Civil Twilight 6:52 AM CDT 6:37 PM CDT
Nautical Twilight 6:19 AM CDT 7:10 PM CDT
Astronomical Twilight 5:46 AM CDT 7:43 PM CDT
Moon 5:02 AM CDT 5:05 PM CDT
Length Of Visible Light 11h 44m
Length of Day
10h 46m
Tomorrow will be 2m 47s shorter.
Waning Crescent, 5% of the Moon is Illuminated
Hodie
Waning Crescent
Oct 23
New
Oct 30
First Quarter
Nov 6
Full
Nov 14
Last Quarter

Today's Extremes

State Highs State Lows

Community

WunderPhotos

Upload Photos

1,763,738 photos uploaded!

Nearby

Snow Depth

Station Depth Elevation
No new snow has been reported.

Earthquake Activity

City Distance Mag. Time & Date
No recent earthquake activity has been reported nearby.
Minimum magnitude displayed is 2.5.

Coastal Water Temperatures

Locus Calor
No Stations Reporting

Nearby Weather Stations